createdAt,value
2018-12-15T00:02:26.578Z,8.50
2018-12-15T00:07:31.736Z,8.65
2018-12-15T00:12:36.613Z,9.10
2018-12-15T00:17:41.482Z,8.95
2018-12-15T00:22:46.347Z,9.13
2018-12-15T00:27:51.314Z,9.95
2018-12-15T00:32:56.214Z,9.15
2018-12-15T00:38:01.043Z,8.58
2018-12-15T00:43:06.517Z,8.30
2018-12-15T00:48:11.072Z,7.95
2018-12-15T00:53:16.045Z,9.83
2018-12-15T00:58:21.409Z,6.17
2018-12-15T01:03:26.540Z,6.15
2018-12-15T01:08:31.881Z,6.65
2018-12-15T01:13:37.860Z,8.30
2018-12-15T01:18:43.519Z,9.23
2018-12-15T01:23:49.306Z,6.25
2018-12-15T01:28:55.919Z,9.28
2018-12-15T01:34:02.950Z,6.67
2018-12-15T01:39:09.610Z,5.55
2018-12-15T01:44:14.934Z,7.75
2018-12-15T01:49:20.830Z,7.50
2018-12-15T01:54:25.579Z,6.80
2018-12-15T01:59:30.461Z,5.47
2018-12-15T02:04:36.332Z,4.90
2018-12-15T02:09:42.523Z,5.42
2018-12-15T02:14:48.653Z,5.58
2018-12-15T02:19:54.480Z,5.33
2018-12-15T02:25:01.897Z,5.45
2018-12-15T02:30:07.176Z,6.30
2018-12-15T02:35:12.949Z,5.30
2018-12-15T02:40:18.890Z,4.85
2018-12-15T02:45:24.421Z,4.92
2018-12-15T02:50:29.865Z,5.22
2018-12-15T02:55:35.471Z,6.58
2018-12-15T03:00:40.818Z,6.65
2018-12-15T03:05:45.761Z,4.37
2018-12-15T03:10:50.390Z,4.78
2018-12-15T03:15:55.220Z,3.92
2018-12-15T03:21:03.892Z,6.45
2018-12-15T03:26:08.377Z,3.87
2018-12-15T03:31:13.494Z,8.18
2018-12-15T03:36:18.870Z,4.22
2018-12-15T03:41:24.105Z,3.75
2018-12-15T03:46:29.460Z,4.50
2018-12-15T03:51:34.170Z,3.17
2018-12-15T03:56:39.111Z,3.12
2018-12-15T04:01:44.578Z,4.87
2018-12-15T04:06:49.890Z,4.10
2018-12-15T04:11:54.707Z,3.52
2018-12-15T04:16:59.971Z,3.83
2018-12-15T04:22:21.333Z,3.30
2018-12-15T04:27:26.463Z,2.90
2018-12-15T04:32:31.373Z,3.10
2018-12-15T04:37:36.371Z,5.17
2018-12-15T04:42:41.570Z,3.02
2018-12-15T04:47:46.767Z,3.00
2018-12-15T04:52:51.260Z,2.77
2018-12-15T04:57:56.469Z,2.98
2018-12-15T05:03:02.023Z,3.35
2018-12-15T05:08:07.140Z,3.27
2018-12-15T05:13:12.510Z,2.70
2018-12-15T05:18:18.359Z,2.92
2018-12-15T05:23:22.361Z,3.55
2018-12-15T05:28:27.370Z,2.65
2018-12-15T05:33:32.390Z,2.47
2018-12-15T05:38:37.312Z,2.50
2018-12-15T05:43:42.441Z,2.90
2018-12-15T05:48:47.332Z,2.50
2018-12-15T05:53:52.476Z,2.30
2018-12-15T05:58:57.650Z,2.65
2018-12-15T06:04:03.940Z,2.98
2018-12-15T06:09:08.930Z,3.05
2018-12-15T06:14:13.891Z,2.50
2018-12-15T06:19:19.081Z,2.50
2018-12-15T06:24:24.921Z,2.37
2018-12-15T06:29:29.651Z,2.30
2018-12-15T06:34:34.391Z,2.52
2018-12-15T06:39:39.250Z,3.35
2018-12-15T06:44:44.161Z,2.17
2018-12-15T06:49:49.403Z,2.30
2018-12-15T06:54:54.701Z,2.20
2018-12-15T06:59:59.490Z,2.75
2018-12-15T07:05:04.652Z,2.30
2018-12-15T07:10:10.150Z,2.98
2018-12-15T07:15:14.819Z,2.67
2018-12-15T07:20:19.550Z,4.25
2018-12-15T07:25:24.831Z,4.22
2018-12-15T07:30:29.860Z,13.03
2018-12-15T07:35:35.680Z,17.80
2018-12-15T07:40:40.700Z,11.63
2018-12-15T07:45:45.794Z,15.15
2018-12-15T07:50:51.148Z,13.75
2018-12-15T07:55:56.390Z,21.35
2018-12-15T08:01:02.254Z,12.75
2018-12-15T08:06:07.566Z,17.85
2018-12-15T08:11:29.802Z,14.38
2018-12-15T08:16:35.160Z,11.30
2018-12-15T08:21:41.671Z,11.60
2018-12-15T08:26:47.367Z,10.48
2018-12-15T08:31:52.854Z,12.05
2018-12-15T08:36:59.159Z,32.98
2018-12-15T08:42:04.260Z,15.35
2018-12-15T08:47:09.539Z,12.43
2018-12-15T08:52:14.791Z,10.95
2018-12-15T08:57:25.850Z,11.83
2018-12-15T09:02:30.710Z,11.73
2018-12-15T09:07:35.548Z,8.35
2018-12-15T09:12:40.798Z,10.90
2018-12-15T09:17:46.050Z,7.78
2018-12-15T09:22:52.380Z,15.78
2018-12-15T09:27:58.189Z,13.15
2018-12-15T09:33:03.559Z,9.85
2018-12-15T09:38:08.650Z,7.55
2018-12-15T09:43:14.120Z,15.32
2018-12-15T09:48:19.621Z,12.45
2018-12-15T09:53:24.545Z,8.00
2018-12-15T09:58:29.585Z,6.60
2018-12-15T10:03:34.780Z,10.65
2018-12-15T10:08:39.999Z,10.38
2018-12-15T10:13:44.729Z,7.47
2018-12-15T10:18:49.378Z,12.15
2018-12-15T10:23:54.898Z,8.85
2018-12-15T10:29:00.179Z,14.40
2018-12-15T10:34:05.478Z,13.65
2018-12-15T10:39:11.168Z,9.93
2018-12-15T10:44:16.572Z,17.82
2018-12-15T10:49:21.708Z,23.45
2018-12-15T10:54:26.399Z,26.37
2018-12-15T10:59:31.429Z,21.65
2018-12-15T11:04:36.740Z,16.95
2018-12-15T11:09:41.221Z,21.80
2018-12-15T11:14:46.529Z,17.82
2018-12-15T11:19:51.412Z,14.78
2018-12-15T11:24:57.339Z,17.73
2018-12-15T11:30:01.920Z,15.10
2018-12-15T11:35:07.340Z,14.15
2018-12-15T11:40:12.160Z,16.10
2018-12-15T11:45:16.960Z,14.18
2018-12-15T11:50:23.511Z,20.85
2018-12-15T11:55:28.010Z,22.02
2018-12-15T12:00:33.009Z,25.35
2018-12-15T12:05:39.020Z,20.02
2018-12-15T12:10:44.127Z,21.62
2018-12-15T12:15:49.330Z,22.37
2018-12-15T12:20:54.029Z,20.10
2018-12-15T12:25:58.820Z,20.75
2018-12-15T12:31:04.735Z,21.62
2018-12-15T12:36:09.959Z,25.02
2018-12-15T12:41:15.305Z,24.57
2018-12-15T12:46:21.040Z,14.47
2018-12-15T12:51:26.172Z,10.20
2018-12-15T12:56:30.750Z,11.85
2018-12-15T13:01:35.461Z,15.60
2018-12-15T13:06:41.650Z,8.28
2018-12-15T13:11:47.029Z,9.93
2018-12-15T13:16:52.039Z,12.55
2018-12-15T13:21:57.458Z,14.85
2018-12-15T13:27:02.439Z,17.92
2018-12-15T13:32:08.019Z,15.20
2018-12-15T13:37:12.370Z,9.48
2018-12-15T13:42:17.649Z,8.05
2018-12-15T13:47:22.830Z,10.05
2018-12-15T13:52:27.910Z,12.82
2018-12-15T13:57:33.350Z,8.90
2018-12-15T14:02:38.749Z,11.18
2018-12-15T14:07:44.011Z,8.88
2018-12-15T14:12:48.941Z,5.97
2018-12-15T14:17:54.150Z,7.78
2018-12-15T14:22:59.139Z,10.10
2018-12-15T14:28:04.029Z,8.15
2018-12-15T14:33:08.980Z,10.00
2018-12-15T14:38:13.949Z,6.45
2018-12-15T14:43:18.821Z,14.23
2018-12-15T14:48:24.805Z,15.58
2018-12-15T14:53:30.561Z,12.50
2018-12-15T14:58:35.175Z,11.57
2018-12-15T15:03:40.280Z,17.70
2018-12-15T15:08:45.759Z,12.73
2018-12-15T15:13:52.847Z,16.00
2018-12-15T15:18:57.404Z,13.53
2018-12-15T15:24:02.593Z,15.90
2018-12-15T15:29:07.699Z,22.65
2018-12-15T15:34:12.900Z,14.55
2018-12-15T15:39:17.889Z,18.32
2018-12-15T15:44:22.799Z,17.40
2018-12-15T15:49:27.989Z,17.23
2018-12-15T15:54:32.729Z,14.68
2018-12-15T15:59:37.949Z,13.70
2018-12-15T16:04:43.479Z,14.25
2018-12-15T16:09:48.548Z,10.85
2018-12-15T16:14:53.139Z,12.23
2018-12-15T16:19:58.252Z,16.95
2018-12-15T16:25:02.800Z,8.48
2018-12-15T16:30:11.368Z,10.90
2018-12-15T16:35:15.991Z,10.55
2018-12-15T16:40:21.499Z,11.55
2018-12-15T16:45:26.269Z,8.63
2018-12-15T16:50:31.629Z,13.43
2018-12-15T16:55:36.631Z,7.45
2018-12-15T17:00:41.871Z,9.38
2018-12-15T17:05:46.979Z,6.87
2018-12-15T17:10:51.869Z,9.65
2018-12-15T17:15:56.961Z,10.00
2018-12-15T17:21:02.250Z,6.97
2018-12-15T17:26:06.970Z,6.53
2018-12-15T17:31:12.380Z,9.75
2018-12-15T17:36:17.570Z,7.65
2018-12-15T17:41:22.619Z,8.68
2018-12-15T17:46:27.860Z,4.67
2018-12-15T17:51:33.090Z,7.22
2018-12-15T17:56:37.933Z,5.78
2018-12-15T18:01:42.601Z,7.15
2018-12-15T18:06:47.468Z,6.15
2018-12-15T18:11:52.319Z,5.95
2018-12-15T18:16:57.648Z,7.62
2018-12-15T18:22:02.920Z,6.60
2018-12-15T18:27:07.719Z,6.80
2018-12-15T18:32:13.050Z,6.83
2018-12-15T18:37:18.101Z,4.90
2018-12-15T18:42:22.969Z,7.62
2018-12-15T18:47:28.179Z,5.25
2018-12-15T18:52:32.915Z,7.28
2018-12-15T18:57:38.135Z,5.60
2018-12-15T19:02:42.940Z,6.75
2018-12-15T19:07:48.399Z,5.87
2018-12-15T19:12:52.981Z,4.50
2018-12-15T19:17:58.170Z,6.37
2018-12-15T19:23:02.851Z,5.92
2018-12-15T19:28:07.479Z,5.85
2018-12-15T19:33:12.153Z,4.60
2018-12-15T19:38:17.109Z,6.22
2018-12-15T19:43:22.210Z,4.37
2018-12-15T19:48:26.870Z,4.35
2018-12-15T19:53:32.039Z,4.53
2018-12-15T19:58:36.820Z,6.10
2018-12-15T20:03:42.389Z,4.37
2018-12-15T20:08:47.349Z,4.62
2018-12-15T20:13:52.400Z,4.85
2018-12-15T20:18:57.921Z,4.15
2018-12-15T20:24:02.759Z,5.45
2018-12-15T20:29:08.109Z,3.85
2018-12-15T20:34:13.272Z,4.28
2018-12-15T20:39:17.851Z,5.12
2018-12-15T20:44:24.110Z,5.03
2018-12-15T20:49:28.816Z,6.47
2018-12-15T20:54:33.930Z,4.53
2018-12-15T20:59:39.232Z,3.70
2018-12-15T21:04:44.120Z,4.08
2018-12-15T21:09:49.359Z,6.08
2018-12-15T21:14:54.030Z,4.62
2018-12-15T21:19:58.990Z,3.87
2018-12-15T21:25:03.819Z,4.17
2018-12-15T21:30:09.741Z,4.05
2018-12-15T21:35:14.970Z,4.22
2018-12-15T21:40:20.219Z,5.12
2018-12-15T21:45:26.699Z,3.58
2018-12-15T21:50:31.838Z,3.42
2018-12-15T21:55:37.090Z,3.75
2018-12-15T22:00:42.179Z,4.58
2018-12-15T22:05:47.469Z,4.78
2018-12-15T22:10:52.841Z,3.83
2018-12-15T22:15:57.732Z,4.62
2018-12-15T22:21:03.049Z,4.08
2018-12-15T22:26:07.849Z,3.72
2018-12-15T22:31:12.778Z,4.78
2018-12-15T22:36:17.621Z,4.00
2018-12-15T22:41:22.809Z,3.98
2018-12-15T22:46:28.079Z,3.90
2018-12-15T22:51:33.339Z,3.83
2018-12-15T22:56:39.612Z,21.97
2018-12-15T23:01:48.109Z,13.55
2018-12-15T23:06:52.849Z,8.88
2018-12-15T23:11:57.959Z,14.03
2018-12-15T23:17:03.278Z,9.48
2018-12-15T23:22:08.056Z,9.40
2018-12-15T23:27:12.699Z,11.63
2018-12-15T23:32:17.778Z,7.47
2018-12-15T23:37:23.169Z,7.92
2018-12-15T23:42:27.819Z,6.53
2018-12-15T23:47:32.988Z,7.67
2018-12-15T23:52:37.719Z,8.03
2018-12-15T23:57:42.988Z,8.48
